Chickamauga Observed Data For Previous 48 Hours

Caption
Day and Hour Reservoir Elevation (behind dam)* Tailwater Elevation (below dam)* Average Hourly Discharge*
3/18/2019 2 AM EDT 675.05 646.71 123,635
3/18/2019 3 AM EDT 675.01 646.70 123,387
3/18/2019 4 AM EDT 675.00 646.69 123,258
3/18/2019 5 AM EDT 674.97 646.66 123,107
3/18/2019 6 AM EDT 674.98 646.64 123,123
3/18/2019 7 AM EDT 674.97 646.63 123,030
3/18/2019 8 AM EDT 674.93 646.61 122,907
3/18/2019 9 AM EDT 674.95 646.65 122,682
3/18/2019 10 AM EDT 675.10 646.42 120,436
3/18/2019 11 AM EDT 675.07 646.24 111,930
3/18/2019 12 PM EDT 675.14 646.18 112,261
3/18/2019 1 PM EDT 675.15 646.11 112,636
3/18/2019 2 PM EDT 675.13 646.03 112,664
3/18/2019 3 PM EDT 675.18 645.96 112,787
3/18/2019 4 PM EDT 675.16 645.92 113,007
3/18/2019 5 PM EDT 675.18 645.88 113,033
3/18/2019 6 PM EDT 675.22 645.81 113,366
3/18/2019 7 PM EDT 675.19 645.76 113,342
3/18/2019 8 PM EDT 675.17 645.75 113,243
3/18/2019 9 PM EDT 675.15 645.70 113,011
3/18/2019 10 PM EDT 675.13 645.71 112,950
3/18/2019 11 PM EDT 675.11 645.72 112,677
3/19/2019 12 AM EDT 675.10 645.71 112,631
3/19/2019 1 AM EDT 675.10 645.71 112,581
3/19/2019 2 AM EDT 675.09 645.71 112,466
3/19/2019 3 AM EDT 675.08 645.71 112,468
3/19/2019 4 AM EDT 675.07 645.70 112,312
3/19/2019 5 AM EDT 675.06 645.68 112,291
3/19/2019 6 AM EDT 675.05 645.67 112,138
3/19/2019 7 AM EDT 675.02 645.67 112,046
3/19/2019 8 AM EDT 675.00 645.66 111,775
3/19/2019 9 AM EDT 675.00 645.67 111,736
3/19/2019 10 AM EDT 674.98 645.67 111,616
3/19/2019 11 AM EDT 675.00 645.70 111,725
3/19/2019 12 PM EDT 675.14 645.11 106,471
3/19/2019 1 PM EDT 675.22 644.63 98,621
3/19/2019 2 PM EDT 675.27 644.29 96,052
3/19/2019 3 PM EDT 675.30 644.15 96,401
3/19/2019 4 PM EDT 675.35 644.04 96,708
3/19/2019 5 PM EDT 675.40 643.96 96,930
3/19/2019 6 PM EDT 675.44 643.88 97,309
3/19/2019 7 PM EDT 675.45 643.83 97,394
3/19/2019 8 PM EDT 675.48 643.83 97,627
3/19/2019 9 PM EDT 675.52 643.81 97,761
3/19/2019 10 PM EDT 675.55 643.80 98,029
3/19/2019 11 PM EDT 675.59 643.83 98,152
3/20/2019 12 AM EDT 675.62 643.83 98,408
3/20/2019 1 AM EDT 675.65 643.88 98,552
3/20/2019 2 AM EDT 675.69 643.86 98,775
3/20/2019 3 AM EDT 675.72 643.92 98,862
3/20/2019 4 AM EDT 675.75 643.92 99,112
3/20/2019 5 AM EDT 675.79 643.94 99,194
3/20/2019 6 AM EDT 675.82 643.96 99,406
3/20/2019 7 AM EDT 675.84 643.94 99,572
3/20/2019 8 AM EDT 675.87 643.98 99,554
3/20/2019 9 AM EDT 675.88 644.01 99,773

Elevations are in feet above sea level. Discharges are in cubic feet per second and are reported at the end of the hour.